Airfield :
LOGIN :

Register | Disclaimer

   EN    FR    IT 

 










Legend :    VFR   Marginal VFR   IFR   Intensive IFR   Very Intensive IFR
Visi :
Ceiling :
>= 8 km
>= 3000ft
5 to 8 km
1000 to 3000 ft
1500m to 5 km
500 to 1000 ft
800 to 1500m
200 to 500 ft
< 800m
< 200 ft
Symbols :   Thunderstorms  Fog  Heavy snow  Heavy precipitations  Wind > 20 kt
SIGMETs :     Misc.  Thunderstorms  Icing  Turbulence  Mountain Waves  Volcanic Ashes







- Airport Elevation : 1020 ft
- IATA code : ILZ


LZZI - Žilina

CURRENT METAR :
  • 232130Z VRB01KT 9999 FEW004 BKN027 OVC046 10/09 Q1016

EXPIRED METARs :
  • 232100Z VRB02KT 9999 SCT005 OVC033 10/09 Q1016
  • 232030Z 11003KT 9999 -RA FEW005 OVC026 10/09 Q1016
  • 232000Z VRB02KT 9999 -RA SCT006 OVC022 10/09 Q1016
  • 231930Z 12003KT 9999 -RA OVC024 10/09 Q1016
  • 231900Z 16002KT 9999 -RA OVC022 10/09 Q1016
  • 231830Z VRB02KT 9999 OVC018 11/09 Q1016

TAF TAF LZZI
Valid from the 23 at 21:00 until the 24 at 06:00 UTC


232000Z 2321/2406 VRB02KT 9999 BKN018 BKN025
TEMPO 2321/2406 4000 -RA BR BKN012 OVC020
PROB40
TEMPO 2401/2406 2000 BR OVC008
No reported NOTAMs for that airfield.



MET'MAP, your aeronautical weather chart ! - Copyright ORBIFLY December 2007 - Disclaimer

ORBIFLY MET'MAP TEAM :

Programming & Development : Alexandra Zaïnal
Concept & Development : Baudouin d'Aumeries
Co-Development & Prog : Marc-Olivier Méhu
Technical & hardware support : Manuel Goepfert

Contact : metmap@orbifly.com




SOURCES & CREDITS :

   NOAA